Time;durP1;ratioP1;P1;durP2;ratioP2;P2;SDS_P1;SDS_P2;PMS_P1;PMS_P2;Temp;Humidity;BMP_temperature;BMP_pressure;BME280_temperature;BME280_humidity;BME280_pressure;Samples;Min_cycle;Max_cycle;Signal;HPM_P1;HPM_P2
2022/09/19 00:01:17;;;;;;;5.70;2.70;;;11.10;99.90;;;;;;5050999;28;20421;-50
2022/09/19 00:03:51;;;;;;;3.80;2.13;;;11.20;99.90;;;;;;5050440;28;20428;-48
2022/09/19 00:06:17;;;;;;;6.27;2.60;;;11.10;99.90;;;;;;5051515;28;20554;-49
2022/09/19 00:08:45;;;;;;;12.83;2.37;;;11.00;99.90;;;;;;5051877;28;20412;-51
2022/09/19 00:11:13;;;;;;;4.20;1.70;;;11.10;99.90;;;;;;5051868;28;20419;-48
2022/09/19 00:13:43;;;;;;;6.87;2.00;;;11.10;99.90;;;;;;5051063;28;20408;-51
2022/09/19 00:16:09;;;;;;;11.57;4.10;;;11.10;99.90;;;;;;5051696;28;20451;-50
2022/09/19 00:18:34;;;;;;;6.57;2.10;;;11.10;99.90;;;;;;5051452;28;20459;-47
2022/09/19 00:21:00;;;;;;;7.57;2.30;;;11.10;99.90;;;;;;5062037;28;20189;-48
2022/09/19 00:26:12;;;;;;;6.57;1.80;;;11.10;99.90;;;;;;5051397;28;20206;-48
2022/09/19 00:28:38;;;;;;;5.03;2.33;;;11.00;99.90;;;;;;5051427;28;20428;-49
2022/09/19 00:31:05;;;;;;;7.50;2.10;;;11.00;99.90;;;;;;5049728;28;20992;-49
2022/09/19 00:33:32;;;;;;;9.37;2.63;;;11.00;99.90;;;;;;5050935;28;20496;-51
2022/09/19 00:36:00;;;;;;;6.33;2.40;;;11.00;99.90;;;;;;5051183;28;20432;-51
2022/09/19 00:38:28;;;;;;;6.40;2.50;;;11.00;99.90;;;;;;5051230;28;20432;-49
2022/09/19 00:40:55;;;;;;;6.13;1.37;;;10.90;99.90;;;;;;5051052;28;20489;-46
2022/09/19 00:43:22;;;;;;;4.90;1.90;;;11.00;99.90;;;;;;5050429;28;20439;-51
2022/09/19 00:45:48;;;;;;;5.27;1.77;;;11.00;99.90;;;;;;5050773;28;20429;-50
2022/09/19 00:48:16;;;;;;;8.13;1.70;;;11.00;99.90;;;;;;5050986;28;21039;-49
2022/09/19 00:50:51;;;;;;;10.57;2.77;;;10.90;99.90;;;;;;5051141;28;20189;-46
2022/09/19 00:53:22;;;;;;;3.83;1.47;;;10.90;99.90;;;;;;5048689;28;20436;-47
2022/09/19 00:55:53;;;;;;;8.37;2.00;;;11.00;99.90;;;;;;5049946;28;20493;-50
2022/09/19 00:58:32;;;;;;;6.13;2.13;;;11.00;99.90;;;;;;5050446;28;20431;-47
2022/09/19 01:00:59;;;;;;;8.37;2.00;;;11.00;99.90;;;;;;5050705;28;20516;-49
2022/09/19 01:03:26;;;;;;;10.80;2.50;;;11.10;99.90;;;;;;5050107;28;20524;-51
2022/09/19 01:05:56;;;;;;;6.00;1.80;;;11.10;99.90;;;;;;5050469;28;20527;-47
2022/09/19 01:08:24;;;;;;;5.10;2.20;;;11.10;99.90;;;;;;5050554;28;20791;-48
2022/09/19 01:11:31;;;;;;;5.27;2.20;;;11.10;99.90;;;;;;5050248;28;20428;-48
2022/09/19 01:14:09;;;;;;;7.83;2.00;;;11.10;99.90;;;;;;5048713;28;20433;-47
2022/09/19 01:16:42;;;;;;;5.47;1.80;;;11.10;99.90;;;;;;5050508;28;20574;-52
2022/09/19 01:19:40;;;;;;;6.33;2.00;;;11.00;99.90;;;;;;5051167;28;20451;-47
2022/09/19 01:22:19;;;;;;;7.37;2.40;;;11.10;99.90;;;;;;5055457;28;20436;-48
2022/09/19 01:25:14;;;;;;;11.07;2.13;;;11.10;99.90;;;;;;5049900;28;20434;-48
2022/09/19 01:28:08;;;;;;;7.47;2.83;;;11.00;99.90;;;;;;5050491;28;21043;-50
2022/09/19 01:30:36;;;;;;;7.73;1.90;;;11.00;99.90;;;;;;5050263;28;20428;-49
2022/09/19 01:33:17;;;;;;;6.23;1.83;;;11.10;99.90;;;;;;5049688;28;20771;-50
2022/09/19 01:35:50;;;;;;;10.43;2.40;;;11.10;99.90;;;;;;5049900;28;20438;-47
2022/09/19 01:38:26;;;;;;;7.93;2.97;;;11.10;99.90;;;;;;5050069;28;20475;-48
2022/09/19 01:40:53;;;;;;;4.90;1.90;;;11.10;99.90;;;;;;5050215;28;20424;-46
2022/09/19 01:43:20;;;;;;;7.87;2.23;;;11.10;99.90;;;;;;5049423;28;20779;-47
2022/09/19 01:45:46;;;;;;;6.00;2.00;;;11.10;99.90;;;;;;5050041;28;20428;-50
2022/09/19 01:48:26;;;;;;;11.57;2.37;;;11.10;99.90;;;;;;5049535;28;20436;-50
2022/09/19 01:51:23;;;;;;;7.97;2.80;;;11.20;99.90;;;;;;5050034;28;20446;-49
2022/09/19 01:53:57;;;;;;;6.80;2.00;;;11.20;99.90;;;;;;5047677;28;20428;-47
2022/09/19 01:56:32;;;;;;;7.00;2.00;;;11.30;99.90;;;;;;5049646;28;20500;-49
2022/09/19 01:59:32;;;;;;;8.07;2.40;;;11.30;99.90;;;;;;5049793;28;20411;-49
2022/09/19 02:02:33;;;;;;;6.20;2.00;;;11.20;99.90;;;;;;5049811;28;20428;-51
2022/09/19 02:05:05;;;;;;;9.07;2.20;;;11.20;99.90;;;;;;5048740;28;20543;-49
2022/09/19 02:08:00;;;;;;;4.97;2.00;;;11.20;99.90;;;;;;5049512;28;20455;-51
2022/09/19 02:10:36;;;;;;;7.67;2.17;;;11.10;99.90;;;;;;5049792;28;20423;-49
2022/09/19 02:13:04;;;;;;;7.77;1.93;;;11.00;99.90;;;;;;5049120;28;20447;-48
2022/09/19 02:15:34;;;;;;;5.50;1.97;;;10.90;99.90;;;;;;5049448;28;20511;-46
2022/09/19 02:18:24;;;;;;;7.80;1.83;;;11.00;99.90;;;;;;5049859;28;20416;-48
2022/09/19 02:20:53;;;;;;;6.90;2.17;;;11.00;99.90;;;;;;5060976;28;20883;-48
2022/09/19 02:23:24;;;;;;;9.80;2.60;;;11.00;99.90;;;;;;5049128;28;20813;-46
2022/09/19 02:25:52;;;;;;;6.10;2.60;;;10.90;99.90;;;;;;5049226;28;20424;-48
2022/09/19 02:28:25;;;;;;;6.50;2.10;;;10.90;99.90;;;;;;5049584;28;20428;-48
2022/09/19 02:30:51;;;;;;;11.07;2.10;;;10.90;99.90;;;;;;5049465;28;20424;-48
2022/09/19 02:33:17;;;;;;;6.60;2.20;;;10.90;99.90;;;;;;5049013;28;20478;-47
2022/09/19 02:35:59;;;;;;;4.73;1.80;;;11.00;99.90;;;;;;5049414;28;20794;-49
2022/09/19 02:39:00;;;;;;;9.03;1.97;;;10.90;99.90;;;;;;5049271;28;20434;-49
2022/09/19 02:41:59;;;;;;;5.60;2.20;;;10.90;99.90;;;;;;5066723;28;20493;-52
2022/09/19 02:44:57;;;;;;;5.73;2.00;;;10.90;99.90;;;;;;5039909;28;20450;-50
2022/09/19 02:47:27;;;;;;;7.30;2.10;;;10.90;99.90;;;;;;5050688;28;20479;-48
2022/09/19 02:50:01;;;;;;;10.50;2.60;;;10.90;99.90;;;;;;5049405;28;20432;-48
2022/09/19 02:52:31;;;;;;;8.07;2.40;;;10.90;99.90;;;;;;5047897;28;20947;-46
2022/09/19 02:55:23;;;;;;;5.13;2.23;;;10.90;99.90;;;;;;5047725;28;20783;-48
2022/09/19 02:57:53;;;;;;;5.13;1.83;;;10.80;99.90;;;;;;5049184;28;20428;-46
2022/09/19 03:00:21;;;;;;;9.97;2.47;;;10.80;99.90;;;;;;5049219;28;20420;-47
2022/09/19 03:04:11;;;;;;;6.47;2.90;;;10.80;99.90;;;;;;5048673;28;20905;-47
2022/09/19 03:05:50;;;;;;;5.67;2.10;;;10.80;99.90;;;;;;5048936;28;20442;-50
2022/09/19 03:08:18;;;;;;;6.30;1.70;;;10.80;99.90;;;;;;5049283;28;20424;-49
2022/09/19 03:10:48;;;;;;;3.77;1.73;;;10.90;99.90;;;;;;5049055;28;20439;-47
2022/09/19 03:13:14;;;;;;;3.27;2.20;;;10.80;99.90;;;;;;5048555;28;20411;-51
2022/09/19 03:15:56;;;;;;;5.37;2.13;;;10.80;99.90;;;;;;5048960;28;20420;-52
2022/09/19 03:18:23;;;;;;;6.10;1.90;;;10.80;99.90;;;;;;5049209;28;20422;-51
2022/09/19 03:20:54;;;;;;;5.97;2.40;;;10.90;99.90;;;;;;5064041;28;20482;-46
2022/09/19 03:23:34;;;;;;;12.70;2.33;;;10.80;99.90;;;;;;5052099;28;20451;-51
2022/09/19 03:26:01;;;;;;;7.37;2.37;;;10.80;99.90;;;;;;5052417;28;20949;-47
2022/09/19 03:28:27;;;;;;;8.83;2.53;;;10.80;99.90;;;;;;5052474;28;20451;-53
2022/09/19 03:30:56;;;;;;;4.67;1.83;;;10.80;99.90;;;;;;5052704;28;20446;-49
2022/09/19 03:33:22;;;;;;;8.10;2.53;;;10.80;99.90;;;;;;5051470;28;20786;-47
2022/09/19 03:35:50;;;;;;;11.00;1.97;;;10.80;99.90;;;;;;5051596;28;20416;-46
2022/09/19 03:38:16;;;;;;;8.17;2.67;;;10.90;99.90;;;;;;5051235;28;20412;-48
2022/09/19 03:40:41;;;;;;;7.77;2.47;;;10.90;99.90;;;;;;5052089;28;20428;-52
2022/09/19 03:43:07;;;;;;;11.83;2.77;;;10.90;99.90;;;;;;5051580;28;20258;-51
2022/09/19 03:45:33;;;;;;;8.30;2.53;;;10.80;99.90;;;;;;5052391;28;20182;-51
2022/09/19 03:47:58;;;;;;;13.07;2.77;;;10.80;99.90;;;;;;5052102;28;20214;-47
2022/09/19 03:50:24;;;;;;;6.80;2.40;;;10.80;99.90;;;;;;5052145;28;20264;-47
2022/09/19 03:52:50;;;;;;;5.10;1.60;;;10.80;99.90;;;;;;5051376;28;20190;-51
2022/09/19 03:55:17;;;;;;;10.83;2.50;;;10.90;99.90;;;;;;5050828;28;20213;-50
2022/09/19 03:57:42;;;;;;;8.90;2.47;;;10.80;99.90;;;;;;5052026;28;20602;-48
2022/09/19 04:00:09;;;;;;;6.23;2.10;;;10.80;99.90;;;;;;5052019;28;20507;-48
2022/09/19 04:02:35;;;;;;;7.43;2.30;;;10.80;99.90;;;;;;5051628;28;20612;-51
2022/09/19 04:05:02;;;;;;;8.00;2.40;;;10.80;99.90;;;;;;5051473;28;20567;-48
2022/09/19 04:07:28;;;;;;;7.10;2.00;;;10.70;99.90;;;;;;5051884;28;20460;-46
2022/09/19 04:09:54;;;;;;;7.73;2.10;;;10.70;99.90;;;;;;5051540;28;20986;-48
2022/09/19 04:12:21;;;;;;;8.17;2.13;;;10.70;99.90;;;;;;5051912;28;20451;-49
2022/09/19 04:14:47;;;;;;;10.67;2.00;;;10.80;99.90;;;;;;5051437;28;20424;-49
2022/09/19 04:17:13;;;;;;;4.50;1.77;;;10.80;99.90;;;;;;5051745;28;20428;-50
2022/09/19 04:19:40;;;;;;;5.93;2.20;;;10.80;99.90;;;;;;5057253;28;20801;-48
2022/09/19 04:22:06;;;;;;;9.73;2.30;;;10.90;99.90;;;;;;5057773;28;20421;-47
2022/09/19 04:24:31;;;;;;;6.90;2.57;;;10.90;99.90;;;;;;5050509;28;20432;-47
2022/09/19 04:27:06;;;;;;;5.67;2.20;;;10.90;99.90;;;;;;5051475;28;20471;-50
2022/09/19 04:29:33;;;;;;;7.97;2.43;;;10.90;99.90;;;;;;5051354;28;20200;-49
2022/09/19 04:32:02;;;;;;;6.00;2.20;;;10.90;99.90;;;;;;5051539;28;20989;-46
2022/09/19 04:34:28;;;;;;;5.40;1.87;;;10.90;99.90;;;;;;5050589;28;20432;-49
2022/09/19 04:36:56;;;;;;;6.87;2.37;;;10.90;99.90;;;;;;5051074;28;20428;-50
2022/09/19 04:39:22;;;;;;;7.80;2.40;;;10.90;99.90;;;;;;5051137;28;20424;-50
2022/09/19 04:41:52;;;;;;;11.53;2.47;;;11.00;99.90;;;;;;5045807;28;20451;-50
2022/09/19 04:44:18;;;;;;;6.13;2.47;;;11.00;99.90;;;;;;5042544;28;20444;-46
2022/09/19 04:46:46;;;;;;;13.10;2.43;;;11.10;99.90;;;;;;5051774;28;20476;-48
2022/09/19 04:49:15;;;;;;;7.33;2.77;;;11.10;99.90;;;;;;5050670;28;20490;-51
2022/09/19 04:51:41;;;;;;;5.50;2.50;;;11.10;99.90;;;;;;5050839;28;20456;-48
2022/09/19 04:54:06;;;;;;;9.90;2.53;;;11.00;99.90;;;;;;5049290;28;20855;-47
2022/09/19 04:56:33;;;;;;;6.00;2.03;;;11.00;99.90;;;;;;5050929;28;20193;-48
2022/09/19 04:59:02;;;;;;;8.23;2.63;;;11.00;99.90;;;;;;5050921;28;20653;-51
2022/09/19 05:01:30;;;;;;;4.53;1.80;;;11.10;99.90;;;;;;5047606;28;20440;-48
2022/09/19 05:03:56;;;;;;;7.50;3.40;;;11.00;99.90;;;;;;5050003;28;20433;-50
2022/09/19 05:06:21;;;;;;;8.20;2.53;;;11.00;99.90;;;;;;5050189;28;20819;-48
2022/09/19 05:08:47;;;;;;;7.83;2.30;;;11.00;99.90;;;;;;5050733;28;20428;-47
2022/09/19 05:11:13;;;;;;;9.70;2.90;;;11.00;99.90;;;;;;5050467;28;20178;-46
2022/09/19 05:13:40;;;;;;;5.93;3.33;;;11.10;99.90;;;;;;5049936;28;20235;-45
2022/09/19 05:16:07;;;;;;;8.33;2.70;;;11.10;99.90;;;;;;5050466;28;20224;-48
2022/09/19 05:18:37;;;;;;;9.20;2.80;;;11.10;99.90;;;;;;5050208;28;20416;-52
2022/09/19 05:21:06;;;;;;;8.87;2.60;;;11.10;99.90;;;;;;5061086;28;20439;-48
2022/09/19 05:23:33;;;;;;;13.70;2.40;;;11.00;99.90;;;;;;5049869;28;20424;-50
2022/09/19 05:26:06;;;;;;;10.07;2.40;;;11.00;99.90;;;;;;5050287;28;20964;-47
2022/09/19 05:28:31;;;;;;;8.70;2.27;;;11.00;99.90;;;;;;5051390;28;20986;-47
2022/09/19 05:30:57;;;;;;;6.57;1.90;;;11.10;99.90;;;;;;5057906;28;20452;-46
2022/09/19 05:33:26;;;;;;;7.13;2.10;;;11.10;99.90;;;;;;5049419;28;20190;-48
2022/09/19 05:35:55;;;;;;;7.50;2.60;;;11.10;99.90;;;;;;5048895;28;20783;-52
2022/09/19 05:38:22;;;;;;;7.27;1.93;;;11.20;99.90;;;;;;5050242;28;20452;-50
2022/09/19 05:40:52;;;;;;;12.00;3.20;;;11.10;99.90;;;;;;5049726;28;20993;-50
2022/09/19 05:43:18;;;;;;;6.97;2.37;;;11.20;99.90;;;;;;5048133;28;20440;-48
2022/09/19 05:45:44;;;;;;;9.93;2.20;;;11.10;99.90;;;;;;5046942;28;20948;-50
2022/09/19 05:48:10;;;;;;;7.47;3.33;;;11.10;99.90;;;;;;5046380;28;20475;-51
2022/09/19 05:50:36;;;;;;;6.63;2.40;;;11.10;99.90;;;;;;5049491;28;20416;-48
2022/09/19 05:55:47;;;;;;;4.63;1.80;;;11.10;99.90;;;;;;5044168;28;20915;-48
2022/09/19 05:58:15;;;;;;;5.70;2.40;;;11.10;99.90;;;;;;5048871;28;20499;-47
2022/09/19 06:00:40;;;;;;;7.57;2.53;;;11.10;99.90;;;;;;5045714;28;20489;-48
2022/09/19 06:03:10;;;;;;;6.73;2.23;;;11.20;99.90;;;;;;5046122;28;21072;-53
2022/09/19 06:05:40;;;;;;;6.60;2.63;;;11.20;99.90;;;;;;5043370;28;20228;-49
2022/09/19 06:08:07;;;;;;;6.80;2.40;;;11.20;99.90;;;;;;5049465;28;20475;-49
2022/09/19 06:10:39;;;;;;;12.30;3.00;;;11.30;99.90;;;;;;5050427;28;20515;-50
2022/09/19 06:13:06;;;;;;;4.53;2.47;;;11.30;99.90;;;;;;5034814;28;21053;-48
2022/09/19 06:15:33;;;;;;;9.10;2.40;;;11.30;99.90;;;;;;5042805;28;20446;-51
2022/09/19 06:17:59;;;;;;;8.43;3.07;;;11.40;99.90;;;;;;5048836;28;20938;-51
2022/09/19 06:20:25;;;;;;;7.87;3.20;;;11.30;99.90;;;;;;5059986;28;20648;-48
2022/09/19 06:23:02;;;;;;;11.73;3.10;;;11.40;99.90;;;;;;5047527;28;20186;-48
2022/09/19 06:25:31;;;;;;;6.87;3.00;;;11.40;99.90;;;;;;5048428;28;20185;-48
2022/09/19 06:27:59;;;;;;;5.50;2.47;;;11.40;99.90;;;;;;5050744;28;20550;-52
2022/09/19 06:30:26;;;;;;;6.43;3.00;;;11.40;99.90;;;;;;5048994;28;20433;-47
2022/09/19 06:32:52;;;;;;;4.90;3.30;;;11.50;99.90;;;;;;5048911;28;20510;-47
2022/09/19 06:35:23;;;;;;;12.30;3.27;;;11.50;99.90;;;;;;5049641;28;20424;-47
2022/09/19 06:37:49;;;;;;;8.73;3.40;;;11.50;99.90;;;;;;5048126;28;20459;-50
2022/09/19 06:40:22;;;;;;;8.23;3.30;;;11.60;99.90;;;;;;5051495;28;20555;-46
2022/09/19 06:42:48;;;;;;;6.33;2.57;;;11.60;99.90;;;;;;5050621;28;20190;-49
2022/09/19 06:45:14;;;;;;;9.10;2.90;;;11.60;99.90;;;;;;5054804;28;20438;-51
2022/09/19 06:47:39;;;;;;;11.40;3.43;;;11.60;99.90;;;;;;5069500;28;20508;-50
2022/09/19 06:50:05;;;;;;;7.90;3.20;;;11.60;99.90;;;;;;5069303;28;20198;-52
2022/09/19 06:52:31;;;;;;;15.00;3.43;;;11.70;99.90;;;;;;5068953;28;20196;-50
2022/09/19 06:54:58;;;;;;;10.70;3.00;;;11.80;99.90;;;;;;5071522;28;20177;-51
2022/09/19 06:57:24;;;;;;;8.40;2.70;;;11.80;99.90;;;;;;5053817;28;21015;-51
2022/09/19 06:59:49;;;;;;;8.50;3.10;;;11.90;99.90;;;;;;5052976;28;20432;-47
2022/09/19 07:02:15;;;;;;;9.50;3.27;;;12.00;99.90;;;;;;5053212;28;20514;-50
2022/09/19 07:04:41;;;;;;;5.77;2.80;;;12.10;99.90;;;;;;5052263;28;20209;-51
2022/09/19 07:07:06;;;;;;;7.90;3.10;;;12.10;99.90;;;;;;5052832;28;20516;-48
2022/09/19 07:09:32;;;;;;;9.27;3.43;;;12.10;99.90;;;;;;5052828;28;20185;-49
2022/09/19 07:12:01;;;;;;;7.30;2.83;;;12.20;99.90;;;;;;5053123;28;20189;-47
2022/09/19 07:14:26;;;;;;;9.30;3.30;;;12.20;99.90;;;;;;5051976;28;20189;-46
2022/09/19 07:16:52;;;;;;;8.17;3.47;;;12.20;99.90;;;;;;5053980;28;20440;-48
2022/09/19 07:19:18;;;;;;;9.83;3.70;;;12.30;99.90;;;;;;5053981;28;20685;-48
2022/09/19 07:21:43;;;;;;;6.80;3.07;;;12.30;99.90;;;;;;5051845;28;20188;-51
2022/09/19 07:24:09;;;;;;;8.50;3.63;;;12.40;99.90;;;;;;5054659;28;20689;-52
2022/09/19 07:26:35;;;;;;;7.10;2.50;;;12.40;99.90;;;;;;5050965;28;20224;-51
2022/09/19 07:29:01;;;;;;;9.40;3.40;;;12.30;99.90;;;;;;5057353;28;20503;-49
2022/09/19 07:31:27;;;;;;;11.93;3.63;;;12.30;99.90;;;;;;5055017;28;20174;-51
2022/09/19 07:33:53;;;;;;;7.33;2.77;;;12.30;99.90;;;;;;5051534;28;20602;-50
2022/09/19 07:36:21;;;;;;;8.87;3.70;;;12.30;99.90;;;;;;5051705;28;20523;-50
2022/09/19 07:38:51;;;;;;;6.63;3.67;;;12.30;99.90;;;;;;5050941;28;20661;-47
2022/09/19 07:41:17;;;;;;;5.17;3.00;;;12.30;99.90;;;;;;5051949;28;20436;-48
2022/09/19 07:43:48;;;;;;;4.73;2.37;;;12.40;99.90;;;;;;5051511;28;20428;-49
2022/09/19 07:46:15;;;;;;;5.40;3.10;;;12.50;99.90;;;;;;5052549;28;20589;-49
2022/09/19 07:48:47;;;;;;;7.67;2.70;;;12.50;99.90;;;;;;5062737;28;20416;-47
2022/09/19 07:51:13;;;;;;;6.40;2.50;;;12.60;99.90;;;;;;5051816;28;20427;-47
2022/09/19 07:53:39;;;;;;;8.43;2.10;;;12.60;99.90;;;;;;5050540;28;20416;-51
2022/09/19 07:56:05;;;;;;;7.83;2.43;;;12.80;99.90;;;;;;5066572;28;20185;-51
2022/09/19 07:58:30;;;;;;;6.33;2.20;;;12.80;99.90;;;;;;5072048;28;20181;-47
2022/09/19 08:01:02;;;;;;;13.60;3.10;;;12.90;99.90;;;;;;5065628;28;20442;-47
2022/09/19 08:03:28;;;;;;;8.83;3.10;;;13.00;99.90;;;;;;5059758;28;20695;-49
2022/09/19 08:05:54;;;;;;;10.70;2.40;;;13.00;99.90;;;;;;5064576;28;20831;-50
2022/09/19 08:08:22;;;;;;;9.53;2.60;;;13.10;99.90;;;;;;5051771;28;20560;-52
2022/09/19 08:10:48;;;;;;;7.37;1.80;;;13.10;99.90;;;;;;5051424;28;20178;-50
2022/09/19 08:13:15;;;;;;;8.13;2.50;;;13.20;99.90;;;;;;5052572;28;20448;-52
2022/09/19 08:15:43;;;;;;;11.07;2.00;;;13.20;99.90;;;;;;5050766;28;20201;-49
2022/09/19 08:18:18;;;;;;;5.07;2.40;;;13.30;99.90;;;;;;5051037;28;20432;-49
2022/09/19 08:20:44;;;;;;;6.27;1.87;;;13.40;99.90;;;;;;5053747;28;20420;-49
2022/09/19 08:23:13;;;;;;;5.57;2.00;;;13.60;99.90;;;;;;5050505;28;21152;-48
2022/09/19 08:25:46;;;;;;;7.80;2.87;;;13.70;99.90;;;;;;5055956;28;20451;-50
2022/09/19 08:28:12;;;;;;;3.70;1.70;;;13.90;99.90;;;;;;5042595;28;20506;-50
2022/09/19 08:30:38;;;;;;;7.93;2.70;;;14.00;99.90;;;;;;5050782;28;20421;-50
2022/09/19 08:33:06;;;;;;;9.93;2.13;;;14.10;99.90;;;;;;5050783;28;21160;-52
2022/09/19 08:35:37;;;;;;;11.70;3.10;;;14.20;99.90;;;;;;5051374;28;20198;-47
2022/09/19 08:38:04;;;;;;;7.80;2.50;;;14.30;99.90;;;;;;5051389;28;20847;-49
2022/09/19 08:40:34;;;;;;;7.13;1.87;;;14.40;99.90;;;;;;5030055;28;20437;-48
2022/09/19 08:43:03;;;;;;;9.57;2.27;;;14.40;99.90;;;;;;5043966;28;20857;-50
2022/09/19 08:45:58;;;;;;;5.50;2.03;;;14.50;99.90;;;;;;5051239;28;20474;-49
2022/09/19 08:48:50;;;;;;;9.03;2.27;;;14.60;99.90;;;;;;5050995;28;20475;-49
2022/09/19 08:51:33;;;;;;;9.53;2.67;;;14.70;99.90;;;;;;5050767;28;20833;-49
2022/09/19 08:54:11;;;;;;;6.30;1.63;;;14.70;99.90;;;;;;5049522;28;20416;-50
2022/09/19 08:56:39;;;;;;;6.90;1.90;;;14.80;99.90;;;;;;5050961;28;20426;-51
2022/09/19 08:59:10;;;;;;;7.70;1.60;;;14.90;99.90;;;;;;5050798;28;20416;-49
2022/09/19 09:01:38;;;;;;;7.60;1.87;;;15.00;99.90;;;;;;5050603;28;20841;-49
2022/09/19 09:04:22;;;;;;;7.13;2.30;;;15.10;99.90;;;;;;5049986;28;20503;-49
2022/09/19 09:07:29;;;;;;;8.63;2.00;;;15.20;99.90;;;;;;5050611;28;20444;-50
2022/09/19 09:10:11;;;;;;;7.93;3.07;;;15.20;99.90;;;;;;5049628;28;20420;-49
2022/09/19 09:12:59;;;;;;;5.03;1.50;;;15.30;99.90;;;;;;5049940;28;20908;-49
2022/09/19 09:15:49;;;;;;;3.77;1.50;;;15.40;99.90;;;;;;5050010;28;20490;-49
2022/09/19 09:18:23;;;;;;;5.80;1.70;;;15.60;99.90;;;;;;5050540;28;20424;-49
2022/09/19 09:20:57;;;;;;;7.10;1.70;;;15.70;99.90;;;;;;5061845;28;20423;-47
2022/09/19 09:23:34;;;;;;;7.37;1.53;;;15.80;99.90;;;;;;5050001;28;20452;-51
2022/09/19 09:26:06;;;;;;;7.27;1.83;;;15.90;99.90;;;;;;5050192;28;20430;-49
2022/09/19 09:29:02;;;;;;;5.03;1.90;;;16.00;99.90;;;;;;5049022;28;20432;-48
2022/09/19 09:31:34;;;;;;;4.20;1.70;;;16.00;99.90;;;;;;5050345;28;20407;-52
2022/09/19 09:34:10;;;;;;;5.60;1.80;;;16.00;99.90;;;;;;5049630;28;20416;-49
2022/09/19 09:36:48;;;;;;;6.03;2.13;;;16.00;99.90;;;;;;5050186;28;20419;-51
2022/09/19 09:39:21;;;;;;;7.17;1.87;;;16.20;99.90;;;;;;5050165;28;20428;-50
2022/09/19 09:41:54;;;;;;;6.43;1.70;;;16.20;99.90;;;;;;5048759;28;20423;-51
2022/09/19 09:44:38;;;;;;;6.87;2.43;;;16.20;99.90;;;;;;5049758;28;20424;-53
2022/09/19 09:47:24;;;;;;;7.57;1.73;;;16.30;99.90;;;;;;5049951;28;21034;-51
2022/09/19 09:49:56;;;;;;;5.93;1.50;;;16.20;99.90;;;;;;5050067;28;20428;-50
2022/09/19 09:52:46;;;;;;;6.63;1.70;;;16.20;99.90;;;;;;5049831;28;20425;-52
2022/09/19 09:58:18;;;;;;;8.27;2.47;;;16.10;99.90;;;;;;5050951;28;20494;-52
2022/09/19 10:04:01;;;;;;;10.40;2.10;;;16.10;99.90;;;;;;5038622;28;20468;-53
2022/09/19 10:07:09;;;;;;;4.30;1.87;;;16.00;99.90;;;;;;5047699;28;20462;-48
2022/09/19 10:09:40;;;;;;;4.77;1.33;;;15.90;99.90;;;;;;5049817;28;20431;-49
2022/09/19 10:12:15;;;;;;;4.43;1.40;;;15.80;99.90;;;;;;5049780;28;20424;-48
2022/09/19 10:14:42;;;;;;;4.63;1.40;;;15.60;99.90;;;;;;5049190;28;20477;-53
2022/09/19 10:17:08;;;;;;;7.00;1.87;;;15.60;99.90;;;;;;5048485;28;20439;-49
2022/09/19 10:19:56;;;;;;;4.57;1.70;;;15.80;99.90;;;;;;5054716;28;20411;-51
2022/09/19 10:22:22;;;;;;;3.40;1.50;;;15.80;99.90;;;;;;5052789;28;20177;-48
2022/09/19 10:24:55;;;;;;;5.23;1.53;;;15.80;99.90;;;;;;5049070;28;20486;-49
2022/09/19 10:27:45;;;;;;;6.60;2.20;;;15.70;99.90;;;;;;5050845;28;20209;-47
2022/09/19 10:30:17;;;;;;;5.80;1.80;;;15.60;99.90;;;;;;5053642;28;20472;-52
2022/09/19 10:32:43;;;;;;;7.10;1.97;;;15.50;99.90;;;;;;5053095;28;20428;-49
2022/09/19 10:35:38;;;;;;;7.17;1.57;;;15.50;99.90;;;;;;5053401;28;20494;-52
2022/09/19 10:38:17;;;;;;;5.40;1.30;;;15.80;99.90;;;;;;5053453;28;20481;-54
2022/09/19 10:41:01;;;;;;;9.10;2.70;;;16.00;99.90;;;;;;5053564;28;20482;-49
2022/09/19 10:43:36;;;;;;;7.93;1.70;;;16.30;99.90;;;;;;5052690;28;20436;-54
2022/09/19 10:46:09;;;;;;;2.93;1.20;;;16.50;99.90;;;;;;5053490;28;21075;-48
2022/09/19 10:48:40;;;;;;;5.20;1.30;;;16.60;99.90;;;;;;5053279;28;20439;-52
2022/09/19 10:51:10;;;;;;;6.73;1.43;;;16.70;99.90;;;;;;5053525;28;20447;-49
2022/09/19 10:53:39;;;;;;;7.30;1.53;;;16.90;99.90;;;;;;5051746;28;20420;-50
2022/09/19 10:56:11;;;;;;;5.40;1.53;;;16.90;99.90;;;;;;5053027;28;20428;-49
2022/09/19 10:58:42;;;;;;;3.37;1.13;;;17.00;99.90;;;;;;5053184;28;20428;-48
2022/09/19 11:01:23;;;;;;;3.93;1.37;;;17.20;99.90;;;;;;5053252;28;20775;-47
2022/09/19 11:04:02;;;;;;;5.13;1.37;;;17.30;99.90;;;;;;5052381;28;20766;-50
2022/09/19 11:06:30;;;;;;;4.00;1.97;;;17.40;99.90;;;;;;5051721;28;20512;-50
2022/09/19 11:08:58;;;;;;;2.50;1.00;;;17.50;99.90;;;;;;5050505;28;20439;-49
2022/09/19 11:11:46;;;;;;;4.80;1.33;;;17.50;99.90;;;;;;5053070;28;20435;-52
2022/09/19 11:14:19;;;;;;;3.40;1.23;;;17.40;99.90;;;;;;5052245;28;20489;-49
2022/09/19 11:17:01;;;;;;;5.70;1.80;;;17.40;99.90;;;;;;5053035;28;20835;-51
2022/09/19 11:19:30;;;;;;;3.77;1.10;;;17.40;99.90;;;;;;5056768;28;20514;-49
2022/09/19 11:22:23;;;;;;;5.83;1.10;;;17.40;99.90;;;;;;5059674;28;20424;-51
2022/09/19 11:25:03;;;;;;;7.33;1.37;;;17.30;99.90;;;;;;5052208;28;20420;-51
2022/09/19 11:27:48;;;;;;;4.67;1.43;;;17.20;99.90;;;;;;5052363;28;20469;-52
2022/09/19 11:30:19;;;;;;;6.67;1.10;;;17.20;99.90;;;;;;5052507;28;21122;-47
2022/09/19 11:33:05;;;;;;;2.30;0.90;;;17.20;99.90;;;;;;5052151;28;20432;-49
2022/09/19 11:35:48;;;;;;;3.23;1.30;;;17.20;99.90;;;;;;5052537;28;20424;-48
2022/09/19 11:38:56;;;;;;;4.53;1.57;;;17.40;99.90;;;;;;5051987;28;20419;-54
2022/09/19 11:41:36;;;;;;;3.43;1.17;;;17.50;99.90;;;;;;5069719;28;20439;-49
2022/09/19 11:44:15;;;;;;;5.87;1.20;;;17.60;99.90;;;;;;5043398;28;20922;-52
2022/09/19 11:47:00;;;;;;;4.50;1.00;;;17.50;99.90;;;;;;5052178;28;20555;-48
2022/09/19 11:49:52;;;;;;;4.50;1.83;;;17.50;99.90;;;;;;5052168;28;20459;-51
2022/09/19 11:52:27;;;;;;;2.97;1.17;;;17.50;99.90;;;;;;5052688;28;20424;-51
2022/09/19 11:55:21;;;;;;;9.53;2.20;;;17.40;99.90;;;;;;5050355;28;20426;-49
2022/09/19 11:58:03;;;;;;;8.63;1.67;;;17.30;99.90;;;;;;5052291;28;20436;-50
2022/09/19 12:00:42;;;;;;;5.50;1.20;;;17.20;99.90;;;;;;5052058;28;20423;-50
2022/09/19 12:03:10;;;;;;;3.77;1.20;;;17.10;99.90;;;;;;5050309;28;21092;-49
2022/09/19 12:06:12;;;;;;;5.57;0.90;;;17.00;99.90;;;;;;5051845;28;20852;-51
2022/09/19 12:08:43;;;;;;;5.73;1.10;;;16.90;99.90;;;;;;5040415;28;20451;-50
2022/09/19 12:11:12;;;;;;;3.53;1.20;;;16.80;99.90;;;;;;5051428;28;20425;-48
2022/09/19 12:13:53;;;;;;;3.80;1.10;;;16.60;99.90;;;;;;5051218;28;20423;-49
2022/09/19 12:16:24;;;;;;;3.93;1.23;;;16.50;99.90;;;;;;5033889;28;20435;-51
2022/09/19 12:18:59;;;;;;;2.23;1.20;;;16.30;99.90;;;;;;5049540;28;20436;-50
2022/09/19 12:21:34;;;;;;;1.97;0.60;;;16.20;99.90;;;;;;5039346;28;20917;-49
2022/09/19 12:27:21;;;;;;;3.00;0.70;;;16.40;99.90;;;;;;5050314;28;20464;-49
2022/09/19 12:30:11;;;;;;;1.90;0.70;;;16.50;99.90;;;;;;5063262;28;20507;-52
2022/09/19 12:32:41;;;;;;;1.23;0.60;;;16.70;99.90;;;;;;5050020;28;20436;-49
2022/09/19 12:35:33;;;;;;;1.10;0.60;;;16.70;99.90;;;;;;5050401;28;20427;-50
2022/09/19 12:38:24;;;;;;;1.60;0.60;;;16.80;99.90;;;;;;5051489;28;20814;-52
2022/09/19 12:41:07;;;;;;;1.13;0.53;;;17.00;99.90;;;;;;5050013;28;20436;-53
2022/09/19 12:43:59;;;;;;;3.77;0.77;;;17.10;99.90;;;;;;5050595;28;20934;-50
2022/09/19 12:46:57;;;;;;;2.00;0.77;;;17.30;99.90;;;;;;5050926;28;20919;-50
2022/09/19 12:49:54;;;;;;;1.20;0.67;;;17.30;99.90;;;;;;5050116;28;20458;-47
2022/09/19 12:52:36;;;;;;;2.37;0.57;;;17.40;99.90;;;;;;5050785;28;20420;-47
2022/09/19 12:55:28;;;;;;;2.33;0.80;;;17.50;99.90;;;;;;5049579;28;20919;-52
2022/09/19 12:58:09;;;;;;;1.70;0.87;;;17.50;99.90;;;;;;5051025;28;20428;-48
2022/09/19 13:00:42;;;;;;;1.60;0.60;;;17.50;99.90;;;;;;5051031;28;20436;-53
2022/09/19 13:03:29;;;;;;;3.50;0.77;;;17.50;99.90;;;;;;5050052;28;20515;-50
2022/09/19 13:06:02;;;;;;;1.93;0.77;;;17.50;99.90;;;;;;5050614;28;20444;-47
2022/09/19 13:08:37;;;;;;;2.67;0.90;;;17.60;99.90;;;;;;5049697;28;20478;-49
2022/09/19 13:11:16;;;;;;;1.50;0.70;;;17.70;99.90;;;;;;5050749;28;20522;-50
2022/09/19 13:13:47;;;;;;;2.70;0.90;;;17.80;99.90;;;;;;5049830;28;20915;-48
2022/09/19 13:16:16;;;;;;;3.37;1.30;;;17.90;99.90;;;;;;5037212;28;20507;-51
2022/09/19 13:24:47;;;;;;;1.63;1.13;;;17.70;99.90;;;;;;5050014;28;20515;-52
2022/09/19 13:27:14;;;;;;;4.97;1.40;;;17.70;99.90;;;;;;5050093;28;20468;-49
2022/09/19 13:29:44;;;;;;;5.00;1.63;;;17.70;99.90;;;;;;5050567;28;20806;-48
2022/09/19 13:32:54;;;;;;;3.93;1.23;;;17.50;99.90;;;;;;5050198;28;20428;-51
2022/09/19 13:35:24;;;;;;;3.20;1.40;;;17.30;99.90;;;;;;5046653;28;20953;-48
2022/09/19 13:37:52;;;;;;;2.53;1.40;;;17.10;99.90;;;;;;5050507;28;20791;-50